createdAt,value
2022-10-08T00:02:23.047Z,0.3
2022-10-08T00:04:53.630Z,0.3
2022-10-08T00:07:23.863Z,0.29
2022-10-08T00:09:54.463Z,0.29
2022-10-08T00:12:24.652Z,0.31
2022-10-08T00:14:55.283Z,0.29
2022-10-08T00:17:25.534Z,0.28
2022-10-08T00:19:56.107Z,0.3
2022-10-08T00:22:26.379Z,0.29
2022-10-08T00:24:56.949Z,0.27
2022-10-08T00:27:27.519Z,0.3
2022-10-08T00:29:58.059Z,0.29
2022-10-08T00:32:28.590Z,0.29
2022-10-08T00:34:59.160Z,0.3
2022-10-08T00:37:29.696Z,0.3
2022-10-08T00:40:00.342Z,0.3
2022-10-08T00:42:30.424Z,0.29
2022-10-08T00:45:00.974Z,0.29
2022-10-08T00:47:31.523Z,0.29
2022-10-08T00:50:02.056Z,0.28
2022-10-08T00:52:32.467Z,0.29
2022-10-08T00:55:02.982Z,0.29
2022-10-08T00:57:33.446Z,0.29
2022-10-08T01:00:03.986Z,0.24
2022-10-08T01:02:34.458Z,0.25
2022-10-08T01:05:05.011Z,0.24
2022-10-08T01:07:35.443Z,0.24
2022-10-08T01:10:05.964Z,0.25
2022-10-08T01:12:36.454Z,0.25
2022-10-08T01:15:06.692Z,0.23
2022-10-08T01:17:37.147Z,0.24
2022-10-08T01:20:07.662Z,0.24
2022-10-08T01:22:38.130Z,0.23
2022-10-08T01:25:08.639Z,0.24
2022-10-08T01:27:38.858Z,0.23
2022-10-08T01:30:09.528Z,0.23
2022-10-08T01:32:39.959Z,0.23
2022-10-08T01:35:10.445Z,0.22
2022-10-08T01:37:40.863Z,0.21
2022-10-08T01:40:11.383Z,0.22
2022-10-08T01:42:41.861Z,0.21
2022-10-08T01:45:12.396Z,0.21
2022-10-08T01:47:42.849Z,0.22
2022-10-08T01:50:13.342Z,0.21
2022-10-08T01:52:44.097Z,0.22
2022-10-08T01:55:14.365Z,0.21
2022-10-08T01:57:44.830Z,0.21
2022-10-08T02:00:15.455Z,0.21
2022-10-08T02:02:46.183Z,0.2
2022-10-08T02:05:16.345Z,0.19
2022-10-08T02:07:46.480Z,0.21
2022-10-08T02:10:16.725Z,0.21
2022-10-08T02:12:47.434Z,0.2
2022-10-08T02:15:17.804Z,0.19
2022-10-08T02:17:48.184Z,0.19
2022-10-08T02:20:18.747Z,0.2
2022-10-08T02:22:49.377Z,0.19
2022-10-08T02:25:19.386Z,0.19
2022-10-08T02:27:49.917Z,0.2
2022-10-08T02:30:20.493Z,0.2
2022-10-08T02:32:50.876Z,0.19
2022-10-08T02:35:21.411Z,0.18
2022-10-08T02:37:51.941Z,0.17
2022-10-08T02:40:22.510Z,0.18
2022-10-08T02:42:53.056Z,0.18
2022-10-08T02:45:23.697Z,0.19
2022-10-08T02:47:54.266Z,0.18
2022-10-08T02:50:24.880Z,0.19
2022-10-08T02:52:55.112Z,0.18
2022-10-08T02:55:25.892Z,0.18
2022-10-08T02:57:56.325Z,0.17
2022-10-08T03:00:26.492Z,0.19
2022-10-08T03:02:56.969Z,0.17
2022-10-08T03:05:27.506Z,0.17
2022-10-08T03:07:57.986Z,0.18
2022-10-08T03:10:28.512Z,0.18
2022-10-08T03:12:59.030Z,0.17
2022-10-08T03:15:29.603Z,0.16
2022-10-08T03:17:59.997Z,0.17
2022-10-08T03:20:30.513Z,0.17
2022-10-08T03:23:00.982Z,0.18
2022-10-08T03:25:31.655Z,0.19
2022-10-08T03:28:02.069Z,0.18
2022-10-08T03:30:32.639Z,0.19
2022-10-08T03:33:03.044Z,0.18
2022-10-08T03:35:33.651Z,0.18
2022-10-08T03:38:04.057Z,0.18
2022-10-08T03:40:34.673Z,0.19
2022-10-08T03:43:05.111Z,0.17
2022-10-08T03:45:35.761Z,0.16
2022-10-08T03:48:06.176Z,0.17
2022-10-08T03:50:36.790Z,0.18
2022-10-08T03:53:07.255Z,0.19
2022-10-08T03:55:37.576Z,0.19
2022-10-08T03:58:08.357Z,0.18
2022-10-08T04:00:38.976Z,0.18
2022-10-08T04:03:09.009Z,0.18
2022-10-08T04:05:39.648Z,0.18
2022-10-08T04:08:09.788Z,0.18
2022-10-08T04:10:40.236Z,0.18
2022-10-08T04:13:10.603Z,0.18
2022-10-08T04:15:41.448Z,0.17
2022-10-08T04:18:11.832Z,0.16
2022-10-08T04:20:42.672Z,0.18
2022-10-08T04:23:12.803Z,0.18
2022-10-08T04:25:42.873Z,0.16
2022-10-08T04:28:13.073Z,0.18
2022-10-08T04:30:43.952Z,0.18
2022-10-08T04:33:14.625Z,0.18
2022-10-08T04:35:44.779Z,0.18
2022-10-08T04:38:14.851Z,0.17
2022-10-08T04:40:44.888Z,0.17
2022-10-08T04:43:14.951Z,0.18
2022-10-08T04:45:45.512Z,0.18
2022-10-08T04:48:15.589Z,0.17
2022-10-08T04:50:46.366Z,0.17
2022-10-08T04:53:16.915Z,0.17
2022-10-08T04:55:47.590Z,0.16
2022-10-08T04:58:17.980Z,0.15
2022-10-08T05:00:48.044Z,0.15
2022-10-08T05:03:18.377Z,0.16
2022-10-08T05:05:49.075Z,0.14
2022-10-08T05:08:19.459Z,0.15
2022-10-08T05:10:49.863Z,0.14
2022-10-08T05:13:20.144Z,0.12
2022-10-08T05:15:50.314Z,0.12
2022-10-08T05:18:20.802Z,0.12
2022-10-08T05:20:51.189Z,0.11
2022-10-08T05:23:21.797Z,0.13
2022-10-08T05:25:52.228Z,0.15
2022-10-08T05:28:23.137Z,0.15
2022-10-08T05:30:54.004Z,0.13
2022-10-08T05:33:24.259Z,0.14
2022-10-08T05:35:54.767Z,0.13
2022-10-08T05:38:25.315Z,0.13
2022-10-08T05:40:55.357Z,0.11
2022-10-08T05:43:25.946Z,0.12
2022-10-08T05:45:56.009Z,0.11
2022-10-08T05:48:26.034Z,0.11
2022-10-08T05:50:56.179Z,0.13
2022-10-08T05:53:26.687Z,0.13
2022-10-08T05:55:57.315Z,0.12
2022-10-08T05:58:30.396Z,0.14
2022-10-08T06:00:58.331Z,0.13
2022-10-08T06:03:28.802Z,0.12
2022-10-08T06:05:59.336Z,0.14
2022-10-08T06:08:29.857Z,0.15
2022-10-08T06:11:00.396Z,0.15
2022-10-08T06:13:30.901Z,0.14
2022-10-08T06:16:01.505Z,0.13
2022-10-08T06:18:31.885Z,0.11
2022-10-08T06:21:02.407Z,0.12
2022-10-08T06:23:32.933Z,0.12
2022-10-08T06:26:03.170Z,0.14
2022-10-08T06:28:33.747Z,0.15
2022-10-08T06:31:04.236Z,0.14
2022-10-08T06:33:34.657Z,0.13
2022-10-08T06:36:05.176Z,0.12
2022-10-08T06:38:35.720Z,0.14
2022-10-08T06:41:06.236Z,0.13
2022-10-08T06:43:37.065Z,0.14
2022-10-08T06:46:07.542Z,0.15
2022-10-08T06:48:38.281Z,0.14
2022-10-08T06:51:08.817Z,0.15
2022-10-08T06:53:39.325Z,0.13
2022-10-08T06:56:09.593Z,0.14
2022-10-08T06:58:40.095Z,0.12
2022-10-08T07:01:10.539Z,0.13
2022-10-08T07:03:40.865Z,0.14
2022-10-08T07:06:11.637Z,0.15
2022-10-08T07:08:41.830Z,0.14
2022-10-08T07:11:12.352Z,0.13
2022-10-08T07:13:42.860Z,0.14
2022-10-08T07:16:18.140Z,0.14
2022-10-08T07:18:43.971Z,0.13
2022-10-08T07:21:14.158Z,0.13
2022-10-08T07:23:44.687Z,0.14
2022-10-08T07:26:15.261Z,0.13
2022-10-08T07:28:45.835Z,0.14
2022-10-08T07:31:16.282Z,0.14
2022-10-08T07:33:46.755Z,0.15
2022-10-08T07:36:17.225Z,0.14
2022-10-08T07:38:47.428Z,0.14
2022-10-08T07:41:18.020Z,0.14
2022-10-08T07:43:48.551Z,0.14
2022-10-08T07:46:18.731Z,0.15
2022-10-08T07:48:48.753Z,0.14
2022-10-08T07:51:19.358Z,0.15
2022-10-08T07:53:49.312Z,0.15
2022-10-08T07:56:19.472Z,0.14
2022-10-08T07:58:50.181Z,0.14
2022-10-08T08:01:20.902Z,0.13
2022-10-08T08:03:50.928Z,0.15
2022-10-08T08:06:21.514Z,0.16
2022-10-08T08:08:51.766Z,0.15
2022-10-08T08:11:22.018Z,0.15
2022-10-08T08:13:52.299Z,0.16
2022-10-08T08:16:22.796Z,0.15
2022-10-08T08:18:52.955Z,0.17
2022-10-08T08:21:23.491Z,0.17
2022-10-08T08:23:54.041Z,0.17
2022-10-08T08:26:24.596Z,0.17
2022-10-08T08:28:55.194Z,0.17
2022-10-08T08:31:25.592Z,0.17
2022-10-08T08:33:56.062Z,0.17
2022-10-08T08:36:26.763Z,0.17
2022-10-08T08:38:57.303Z,0.17
2022-10-08T08:41:27.957Z,0.17
2022-10-08T08:43:58.064Z,0.18
2022-10-08T08:46:28.495Z,0.18
2022-10-08T08:48:58.586Z,0.17
2022-10-08T08:51:28.790Z,0.17
2022-10-08T08:53:59.380Z,0.17
2022-10-08T08:56:29.986Z,0.18
2022-10-08T08:59:00.649Z,0.18
2022-10-08T09:01:30.873Z,0.18
2022-10-08T09:04:01.393Z,0.19
2022-10-08T09:06:31.945Z,0.18
2022-10-08T09:09:02.259Z,0.19
2022-10-08T09:11:32.636Z,0.19
2022-10-08T09:14:03.148Z,0.19
2022-10-08T09:16:33.687Z,0.18
2022-10-08T09:19:04.163Z,0.19
2022-10-08T09:21:34.528Z,0.21
2022-10-08T09:24:05.017Z,0.23
2022-10-08T09:26:35.469Z,0.21
2022-10-08T09:29:06.015Z,0.22
2022-10-08T09:31:36.464Z,0.2
2022-10-08T09:34:06.835Z,0.22
2022-10-08T09:36:37.234Z,0.23
2022-10-08T09:39:07.788Z,0.24
2022-10-08T09:41:38.213Z,0.21
2022-10-08T09:44:08.791Z,0.21
2022-10-08T09:46:39.189Z,0.21
2022-10-08T09:49:09.588Z,0.22
2022-10-08T09:51:40.091Z,0.22
2022-10-08T09:54:10.500Z,0.22
2022-10-08T09:56:40.950Z,0.22
2022-10-08T09:59:11.551Z,0.23
2022-10-08T10:01:42.013Z,0.22
2022-10-08T10:04:12.360Z,0.21
2022-10-08T10:06:42.760Z,0.23
2022-10-08T10:09:13.206Z,0.23
2022-10-08T10:11:43.687Z,0.23
2022-10-08T10:14:14.125Z,0.25
2022-10-08T10:16:44.634Z,0.26
2022-10-08T10:19:14.972Z,0.26
2022-10-08T10:21:45.420Z,0.23
2022-10-08T10:24:15.883Z,0.23
2022-10-08T10:26:46.349Z,0.21
2022-10-08T10:29:16.786Z,0.23
2022-10-08T10:31:46.862Z,0.26
2022-10-08T10:34:17.282Z,0.26
2022-10-08T10:36:47.757Z,0.3
2022-10-08T10:39:18.150Z,0.29
2022-10-08T10:41:48.585Z,0.29
2022-10-08T10:44:19.081Z,0.26
2022-10-08T10:46:49.503Z,0.26
2022-10-08T10:49:19.933Z,0.26
2022-10-08T10:51:50.374Z,0.26
2022-10-08T10:54:20.806Z,0.27
2022-10-08T10:56:51.256Z,0.25
2022-10-08T10:59:21.699Z,0.28
2022-10-08T11:01:52.214Z,0.26
2022-10-08T11:04:22.561Z,0.27
2022-10-08T11:06:53.023Z,0.27
2022-10-08T11:09:23.434Z,0.29
2022-10-08T11:11:53.869Z,0.28
2022-10-08T11:14:24.410Z,0.28
2022-10-08T11:16:54.531Z,0.28
2022-10-08T11:19:24.949Z,0.26
2022-10-08T11:21:55.284Z,0.33
2022-10-08T11:24:25.800Z,0.35
2022-10-08T11:26:56.113Z,0.34
2022-10-08T11:29:26.541Z,0.31
2022-10-08T11:31:57.002Z,0.29
2022-10-08T11:34:27.503Z,0.29
2022-10-08T11:36:57.913Z,0.27
2022-10-08T11:39:28.385Z,0.26
2022-10-08T11:41:58.875Z,0.27
2022-10-08T11:44:29.418Z,0.24
2022-10-08T11:46:59.901Z,0.23
2022-10-08T11:49:30.296Z,0.24
2022-10-08T11:52:00.770Z,0.23
2022-10-08T11:54:31.241Z,0.24
2022-10-08T11:57:01.703Z,0.25
2022-10-08T11:59:32.187Z,0.24
2022-10-08T12:02:02.744Z,0.23
2022-10-08T12:04:33.115Z,0.21
2022-10-08T12:07:03.651Z,0.19
2022-10-08T12:09:34.190Z,0.21
2022-10-08T12:12:04.780Z,0.19
2022-10-08T12:14:35.352Z,0.19
2022-10-08T12:17:05.873Z,0.18
2022-10-08T12:19:36.433Z,0.18
2022-10-08T12:22:06.816Z,0.17
2022-10-08T12:24:37.279Z,0.19
2022-10-08T12:27:07.742Z,0.19
2022-10-08T12:29:38.199Z,0.19
2022-10-08T12:32:08.773Z,0.2
2022-10-08T12:34:39.188Z,0.21
2022-10-08T12:37:12.505Z,0.2
2022-10-08T12:39:40.010Z,0.2
2022-10-08T12:42:10.446Z,0.23
2022-10-08T12:44:41.004Z,0.18
2022-10-08T12:47:11.357Z,0.2
2022-10-08T12:49:41.856Z,0.18
2022-10-08T12:52:12.218Z,0.2
2022-10-08T12:54:42.665Z,0.19
2022-10-08T12:57:13.099Z,0.19
2022-10-08T12:59:43.544Z,0.23
2022-10-08T13:02:14.186Z,0.25
2022-10-08T13:04:44.526Z,0.24
2022-10-08T13:07:14.932Z,0.24
2022-10-08T13:09:45.367Z,0.26
2022-10-08T13:12:15.808Z,0.29
2022-10-08T13:14:46.261Z,0.3
2022-10-08T13:17:16.698Z,0.28
2022-10-08T13:19:47.142Z,0.31
2022-10-08T13:22:17.710Z,0.29
2022-10-08T13:24:48.052Z,0.32
2022-10-08T13:27:18.515Z,0.3
2022-10-08T13:29:48.959Z,0.3
2022-10-08T13:32:19.439Z,0.29
2022-10-08T13:34:49.873Z,0.3
2022-10-08T13:37:20.329Z,0.31
2022-10-08T13:39:50.785Z,0.33
2022-10-08T13:42:21.231Z,0.3
2022-10-08T13:44:51.683Z,0.29
2022-10-08T13:47:22.179Z,0.3
2022-10-08T13:49:52.621Z,0.33
2022-10-08T13:52:23.075Z,0.34
2022-10-08T13:54:53.564Z,0.33
2022-10-08T13:57:24.006Z,0.31
2022-10-08T13:59:54.453Z,0.32
2022-10-08T14:02:25.061Z,0.33
2022-10-08T14:04:55.402Z,0.32
2022-10-08T14:07:25.909Z,0.31
2022-10-08T14:09:56.318Z,0.32
2022-10-08T14:12:27.143Z,0.31
2022-10-08T14:14:57.803Z,0.33
2022-10-08T14:17:28.257Z,0.33
2022-10-08T14:19:58.699Z,0.3
2022-10-08T14:22:29.140Z,0.31
2022-10-08T14:24:59.613Z,0.32
2022-10-08T14:27:30.033Z,0.3
2022-10-08T14:30:00.682Z,0.34
2022-10-08T14:32:31.522Z,0.32
2022-10-08T14:35:01.935Z,0.34
2022-10-08T14:37:32.369Z,0.37
2022-10-08T14:40:02.804Z,0.34
2022-10-08T14:42:33.256Z,0.32
2022-10-08T14:45:03.700Z,0.34
2022-10-08T14:47:34.175Z,0.35
2022-10-08T14:50:04.607Z,0.4
2022-10-08T14:52:35.067Z,0.36
2022-10-08T14:55:05.511Z,0.36
2022-10-08T14:57:36.102Z,0.34
2022-10-08T15:00:06.498Z,0.32
2022-10-08T15:02:36.902Z,0.35
2022-10-08T15:05:07.336Z,0.32
2022-10-08T15:07:37.810Z,0.35
2022-10-08T15:10:08.278Z,0.35
2022-10-08T15:12:38.738Z,0.39
2022-10-08T15:15:09.208Z,0.36
2022-10-08T15:17:39.674Z,0.34
2022-10-08T15:20:10.122Z,0.34
2022-10-08T15:22:40.581Z,0.36
2022-10-08T15:25:11.048Z,0.35
2022-10-08T15:27:41.644Z,0.38
2022-10-08T15:30:11.975Z,0.37
2022-10-08T15:32:42.479Z,0.34
2022-10-08T15:35:12.935Z,0.3
2022-10-08T15:37:43.430Z,0.33
2022-10-08T15:40:13.878Z,0.34
2022-10-08T15:42:44.638Z,0.31
2022-10-08T15:45:14.821Z,0.3
2022-10-08T15:47:45.278Z,0.31
2022-10-08T15:50:15.726Z,0.3
2022-10-08T15:52:46.612Z,0.3
2022-10-08T15:55:16.635Z,0.3
2022-10-08T15:57:47.167Z,0.3
2022-10-08T16:00:17.585Z,0.32
2022-10-08T16:02:48.361Z,0.31
2022-10-08T16:05:18.540Z,0.3
2022-10-08T16:07:48.969Z,0.3
2022-10-08T16:10:19.496Z,0.28
2022-10-08T16:12:50.251Z,0.27
2022-10-08T16:15:20.377Z,0.28
2022-10-08T16:17:50.843Z,0.29
2022-10-08T16:20:21.294Z,0.27
2022-10-08T16:22:51.742Z,0.28
2022-10-08T16:25:22.216Z,0.27
2022-10-08T16:27:52.693Z,0.26
2022-10-08T16:30:23.251Z,0.27
2022-10-08T16:32:53.609Z,0.25
2022-10-08T16:35:24.045Z,0.29
2022-10-08T16:37:54.508Z,0.28
2022-10-08T16:40:24.970Z,0.28
2022-10-08T16:42:55.451Z,0.28
2022-10-08T16:45:25.914Z,0.28
2022-10-08T16:47:56.417Z,0.27
2022-10-08T16:50:26.866Z,0.24
2022-10-08T16:52:57.352Z,0.24
2022-10-08T16:55:27.824Z,0.23
2022-10-08T17:00:28.762Z,0.21
2022-10-08T17:02:59.316Z,0.21
2022-10-08T17:05:29.746Z,0.21
2022-10-08T17:08:00.266Z,0.19
2022-10-08T17:10:30.722Z,0.19
2022-10-08T17:13:01.095Z,0.19
2022-10-08T17:15:31.567Z,0.14
2022-10-08T17:18:02.049Z,0.11
2022-10-08T17:20:32.495Z,0.11
2022-10-08T17:23:02.945Z,0.12
2022-10-08T17:25:33.394Z,0.11
2022-10-08T17:28:03.903Z,0.12
2022-10-08T17:30:34.376Z,0.14
2022-10-08T17:33:04.770Z,0.14
2022-10-08T17:35:35.218Z,0.14
2022-10-08T17:38:05.710Z,0.13
2022-10-08T17:40:36.124Z,0.14
2022-10-08T17:43:06.588Z,0.14
2022-10-08T17:45:37.110Z,0.14
2022-10-08T17:48:07.510Z,0.14
2022-10-08T17:50:38.019Z,0.15
2022-10-08T17:53:08.480Z,0.15
2022-10-08T17:55:38.916Z,0.12
2022-10-08T17:58:09.371Z,0.11
2022-10-08T18:00:39.841Z,0.11
2022-10-08T18:03:10.475Z,0.11
2022-10-08T18:05:40.877Z,0.11
2022-10-08T18:08:11.309Z,0.12
2022-10-08T18:10:41.777Z,0.12
2022-10-08T18:13:12.272Z,0.11
2022-10-08T18:15:42.943Z,0.1
2022-10-08T18:18:13.434Z,0.11
2022-10-08T18:20:43.924Z,0.12
2022-10-08T18:23:14.648Z,0.12
2022-10-08T18:25:44.975Z,0.12
2022-10-08T18:28:15.507Z,0.12
2022-10-08T18:30:45.654Z,0.11
2022-10-08T18:33:16.046Z,0.11
2022-10-08T18:35:45.989Z,0.11
2022-10-08T18:38:16.534Z,0.11
2022-10-08T18:40:46.871Z,0.09
2022-10-08T18:43:16.938Z,0.07
2022-10-08T18:45:47.790Z,0.06
2022-10-08T18:48:18.493Z,0.05
2022-10-08T18:50:49.330Z,0.05
2022-10-08T18:53:19.850Z,0.05
2022-10-08T18:55:50.662Z,0.06
2022-10-08T18:58:21.418Z,0.08
2022-10-08T19:00:51.637Z,0.08
2022-10-08T19:03:22.300Z,0.08
2022-10-08T19:05:53.218Z,0.07
2022-10-08T19:08:23.757Z,0.07
2022-10-08T19:10:54.280Z,0.07
2022-10-08T19:13:24.432Z,0.07
2022-10-08T19:15:54.699Z,0.08
2022-10-08T19:18:25.252Z,0.08
2022-10-08T19:20:55.327Z,0.09
2022-10-08T19:23:25.723Z,0.1
2022-10-08T19:25:55.933Z,0.1
2022-10-08T19:28:26.738Z,0.1
2022-10-08T19:30:56.740Z,0.1
2022-10-08T19:33:27.103Z,0.12
2022-10-08T19:35:57.415Z,0.12
2022-10-08T19:38:27.647Z,0.1
2022-10-08T19:40:58.298Z,0.1
2022-10-08T19:43:28.862Z,0.12
2022-10-08T19:45:59.592Z,0.12
2022-10-08T19:48:30.117Z,0.11
2022-10-08T19:51:00.721Z,0.12
2022-10-08T19:53:31.021Z,0.12
2022-10-08T19:56:01.890Z,0.11
2022-10-08T19:58:32.084Z,0.12
2022-10-08T20:01:02.828Z,0.12
2022-10-08T20:03:33.451Z,0.12
2022-10-08T20:06:04.224Z,0.1
2022-10-08T20:08:35.074Z,0.11
2022-10-08T20:11:05.156Z,0.11
2022-10-08T20:13:35.353Z,0.11
2022-10-08T20:16:05.652Z,0.11
2022-10-08T20:18:35.795Z,0.12
2022-10-08T20:21:06.170Z,0.13
2022-10-08T20:23:36.792Z,0.12
2022-10-08T20:26:07.638Z,0.12
2022-10-08T20:28:38.421Z,0.1
2022-10-08T20:31:09.155Z,0.11
2022-10-08T20:33:39.213Z,0.11
2022-10-08T20:36:10.110Z,0.11
2022-10-08T20:38:40.158Z,0.11
2022-10-08T20:41:10.424Z,0.09
2022-10-08T20:43:40.299Z,0.1
2022-10-08T20:46:11.153Z,0.1
2022-10-08T20:48:42.072Z,0.11
2022-10-08T20:51:12.859Z,0.11
2022-10-08T20:53:43.353Z,0.11
2022-10-08T20:56:13.668Z,0.11
2022-10-08T20:58:44.110Z,0.12
2022-10-08T21:01:14.259Z,0.11
2022-10-08T21:03:44.835Z,0.12
2022-10-08T21:06:15.305Z,0.12
2022-10-08T21:08:45.884Z,0.11
2022-10-08T21:11:16.479Z,0.1
2022-10-08T21:13:47.022Z,0.1
2022-10-08T21:16:17.678Z,0.11
2022-10-08T21:18:48.153Z,0.09
2022-10-08T21:21:18.733Z,0.1
2022-10-08T21:23:49.312Z,0.11
2022-10-08T21:26:19.891Z,0.11
2022-10-08T21:28:50.507Z,0.11
2022-10-08T21:31:21.105Z,0.11
2022-10-08T21:33:51.715Z,0.11
2022-10-08T21:36:22.194Z,0.11
2022-10-08T21:38:52.744Z,0.12
2022-10-08T21:41:23.327Z,0.12
2022-10-08T21:43:53.914Z,0.12
2022-10-08T21:46:24.508Z,0.11
2022-10-08T21:48:55.058Z,0.11
2022-10-08T21:51:25.660Z,0.11
2022-10-08T21:53:56.353Z,0.11
2022-10-08T21:56:26.835Z,0.11
2022-10-08T21:58:57.520Z,0.11
2022-10-08T22:01:28.021Z,0.11
2022-10-08T22:03:58.361Z,0.09
2022-10-08T22:06:28.946Z,0.1
2022-10-08T22:08:59.504Z,0.1
2022-10-08T22:11:30.121Z,0.11
2022-10-08T22:14:00.686Z,0.11
2022-10-08T22:16:31.371Z,0.1
2022-10-08T22:19:01.991Z,0.1
2022-10-08T22:21:32.473Z,0.1
2022-10-08T22:24:03.109Z,0.1
2022-10-08T22:26:33.689Z,0.09
2022-10-08T22:29:04.387Z,0.11
2022-10-08T22:31:35.085Z,0.11
2022-10-08T22:34:05.528Z,0.1
2022-10-08T22:36:36.095Z,0.1
2022-10-08T22:39:06.847Z,0.11
2022-10-08T22:41:37.335Z,0.11
2022-10-08T22:44:07.953Z,0.11
2022-10-08T22:46:38.582Z,0.11
2022-10-08T22:49:09.245Z,0.1
2022-10-08T22:51:39.897Z,0.11
2022-10-08T22:54:10.346Z,0.1
2022-10-08T22:56:41.007Z,0.11
2022-10-08T22:59:11.542Z,0.12
2022-10-08T23:01:42.189Z,0.12
2022-10-08T23:04:12.816Z,0.11
2022-10-08T23:06:43.395Z,0.1
2022-10-08T23:09:14.077Z,0.1
2022-10-08T23:11:44.619Z,0.1
2022-10-08T23:14:15.324Z,0.09
2022-10-08T23:16:45.926Z,0.11
2022-10-08T23:19:16.397Z,0.11
2022-10-08T23:21:47.027Z,0.1
2022-10-08T23:24:17.587Z,0.1
2022-10-08T23:26:48.169Z,0.11
2022-10-08T23:29:18.806Z,0.1
2022-10-08T23:31:49.451Z,0.1
2022-10-08T23:34:19.994Z,0.11
2022-10-08T23:36:50.523Z,0.1
2022-10-08T23:39:20.831Z,0.11
2022-10-08T23:41:51.420Z,0.1
2022-10-08T23:44:22.157Z,0.11
2022-10-08T23:46:52.252Z,0.1
2022-10-08T23:49:22.865Z,0.09
2022-10-08T23:51:53.439Z,0.09
2022-10-08T23:54:24.001Z,0.1
2022-10-08T23:56:54.651Z,0.1
2022-10-08T23:59:25.321Z,0.1
